Time;durP1;ratioP1;P1;durP2;ratioP2;P2;SDS_P1;SDS_P2;PMS_P1;PMS_P2;Temp;Humidity;BMP_temperature;BMP_pressure;BME280_temperature;BME280_humidity;BME280_pressure;Samples;Min_cycle;Max_cycle;Signal;HPM_P1;HPM_P2
2021/03/25 07:15:28;;;;;;;27.98;16.13;;;;;;;;;;6072971;22;987689;-63
2021/03/25 07:17:53;;;;;;;30.27;16.40;;;;;;;;;;6093654;23;20737;-63
2021/03/25 07:20:24;;;;;;;27.92;14.15;;;;;;;;;;6102214;23;20010;-64
2021/03/25 07:22:59;;;;;;;31.88;15.10;;;;;;;;;;6101613;23;20010;-65
2021/03/25 07:25:24;;;;;;;34.25;17.23;;;;;;;;;;6101170;23;20006;-64
2021/03/25 07:27:50;;;;;;;31.40;15.02;;;;;;;;;;6101124;23;20002;-63
2021/03/25 07:30:17;;;;;;;29.20;15.00;;;;;;;;;;6076530;23;20002;-65
2021/03/25 07:32:52;;;;;;;27.25;13.52;;;;;;;;;;6075139;23;20006;-65
2021/03/25 07:35:27;;;;;;;23.75;13.13;;;;;;;;;;6077727;23;20432;-68
2021/03/25 07:37:53;;;;;;;21.70;12.05;;;;;;;;;;6077299;23;20002;-66
2021/03/25 07:40:25;;;;;;;22.70;12.77;;;;;;;;;;6101099;23;20357;-68
2021/03/25 07:42:52;;;;;;;25.27;12.82;;;;;;;;;;6052708;23;20085;-67
2021/03/25 07:45:21;;;;;;;22.10;12.80;;;;;;;;;;6102833;23;20009;-63
2021/03/25 07:47:47;;;;;;;21.73;12.30;;;;;;;;;;6102899;23;20006;-64
2021/03/25 07:50:18;;;;;;;22.50;12.23;;;;;;;;;;6076622;23;20013;-67
2021/03/25 07:52:44;;;;;;;20.83;11.73;;;;;;;;;;6102490;23;20002;-68
2021/03/25 07:55:11;;;;;;;22.00;11.15;;;;;;;;;;6075421;23;20016;-66
2021/03/25 07:57:41;;;;;;;21.98;12.23;;;;;;;;;;6076862;23;20002;-66
2021/03/25 08:00:16;;;;;;;21.33;11.70;;;;;;;;;;6102295;23;20006;-68
2021/03/25 08:02:41;;;;;;;25.65;11.95;;;;;;;;;;6100960;23;19998;-64
2021/03/25 08:05:16;;;;;;;120.22;18.20;;;;;;;;;;6102724;23;20009;-67
2021/03/25 08:07:43;;;;;;;34.85;13.80;;;;;;;;;;6103125;23;20476;-65
2021/03/25 08:10:21;;;;;;;34.05;17.98;;;;;;;;;;6102335;23;19994;-65
2021/03/25 08:12:48;;;;;;;37.75;17.38;;;;;;;;;;6076491;23;20344;-66
2021/03/25 08:15:16;;;;;;;45.90;17.98;;;;;;;;;;6097705;23;20053;-66
2021/03/25 08:17:44;;;;;;;31.27;16.93;;;;;;;;;;6069885;23;20002;-65
2021/03/25 08:20:19;;;;;;;32.80;18.50;;;;;;;;;;6069702;23;19995;-68
2021/03/25 08:22:44;;;;;;;32.08;17.02;;;;;;;;;;6069469;23;20009;-66
2021/03/25 08:25:19;;;;;;;32.33;17.27;;;;;;;;;;6045531;23;20373;-66
2021/03/25 08:27:50;;;;;;;36.22;17.10;;;;;;;;;;6095547;23;20025;-65
2021/03/25 08:30:19;;;;;;;33.83;17.27;;;;;;;;;;6070283;23;20004;-66
2021/03/25 08:32:52;;;;;;;43.47;18.88;;;;;;;;;;6094340;23;19998;-66
2021/03/25 08:35:27;;;;;;;28.55;14.45;;;;;;;;;;6094495;23;20006;-65
2021/03/25 08:38:01;;;;;;;33.22;16.63;;;;;;;;;;6096296;23;20002;-64
2021/03/25 08:40:36;;;;;;;34.22;16.48;;;;;;;;;;6095183;23;20012;-65
2021/03/25 08:43:04;;;;;;;31.38;15.57;;;;;;;;;;6069070;23;20014;-64
2021/03/25 08:45:36;;;;;;;36.55;15.88;;;;;;;;;;6095428;23;20002;-64
2021/03/25 08:48:02;;;;;;;47.38;16.20;;;;;;;;;;6095037;23;20003;-64
2021/03/25 08:50:32;;;;;;;28.33;14.40;;;;;;;;;;6094160;23;20004;-67
2021/03/25 08:52:59;;;;;;;24.27;13.35;;;;;;;;;;6069541;23;20034;-67
2021/03/25 08:55:25;;;;;;;21.52;12.30;;;;;;;;;;6094255;23;20010;-66
2021/03/25 08:57:53;;;;;;;16.23;9.15;;;;;;;;;;6095268;23;20082;-65
2021/03/25 09:00:22;;;;;;;17.83;8.30;;;;;;;;;;6094935;23;20085;-64
2021/03/25 09:02:51;;;;;;;17.90;8.43;;;;;;;;;;6094263;23;20285;-66
2021/03/25 09:05:26;;;;;;;16.42;8.95;;;;;;;;;;6068988;23;20224;-64
2021/03/25 09:07:52;;;;;;;13.98;6.55;;;;;;;;;;6095645;23;20005;-64
2021/03/25 09:10:27;;;;;;;17.17;7.15;;;;;;;;;;6067850;23;20324;-64
2021/03/25 09:12:52;;;;;;;17.05;6.38;;;;;;;;;;6093247;23;20575;-64
2021/03/25 09:15:20;;;;;;;18.38;6.82;;;;;;;;;;6094141;23;20045;-64
2021/03/25 09:17:50;;;;;;;16.38;7.10;;;;;;;;;;6093872;23;20006;-64
2021/03/25 09:20:23;;;;;;;17.55;8.35;;;;;;;;;;6094477;23;20037;-64
2021/03/25 09:22:52;;;;;;;34.33;13.27;;;;;;;;;;6092402;23;20002;-64
2021/03/25 09:25:19;;;;;;;29.00;11.40;;;;;;;;;;6067576;23;20006;-64
2021/03/25 09:27:54;;;;;;;12.60;6.18;;;;;;;;;;6093666;23;20010;-64
2021/03/25 09:30:29;;;;;;;12.75;7.40;;;;;;;;;;6094032;23;20025;-64
2021/03/25 09:33:14;;;;;;;15.32;8.02;;;;;;;;;;6092937;23;20006;-64
2021/03/25 09:35:41;;;;;;;9.60;4.63;;;;;;;;;;6072714;23;20085;-64
2021/03/25 09:38:10;;;;;;;7.90;4.88;;;;;;;;;;6045574;23;20038;-64
2021/03/25 09:40:52;;;;;;;10.05;4.82;;;;;;;;;;6094029;23;20006;-63
2021/03/25 09:43:27;;;;;;;24.63;5.43;;;;;;;;;;6069054;23;20011;-64
2021/03/25 09:45:55;;;;;;;11.60;4.55;;;;;;;;;;6093914;23;20642;-64
2021/03/25 09:48:24;;;;;;;9.50;4.60;;;;;;;;;;6095056;23;20078;-63
2021/03/25 09:50:59;;;;;;;8.35;4.32;;;;;;;;;;6069212;23;20007;-64
2021/03/25 09:53:24;;;;;;;6.97;4.22;;;;;;;;;;6068032;23;20711;-64
2021/03/25 09:55:58;;;;;;;15.70;4.30;;;;;;;;;;6092921;23;20017;-64
2021/03/25 09:58:34;;;;;;;8.77;5.18;;;;;;;;;;6094102;23;20028;-64
2021/03/25 10:00:59;;;;;;;7.75;4.60;;;;;;;;;;6093892;23;20002;-64
2021/03/25 10:03:34;;;;;;;6.32;4.18;;;;;;;;;;6068563;23;20013;-64
2021/03/25 10:05:59;;;;;;;8.05;4.65;;;;;;;;;;6066964;23;20010;-64
2021/03/25 10:08:26;;;;;;;10.43;4.82;;;;;;;;;;6093588;23;20316;-64
2021/03/25 10:10:51;;;;;;;10.02;4.63;;;;;;;;;;6067242;23;20081;-64
2021/03/25 10:13:18;;;;;;;9.07;5.22;;;;;;;;;;6068932;23;20763;-64
2021/03/25 10:15:47;;;;;;;9.90;4.80;;;;;;;;;;6089943;23;20014;-65
2021/03/25 10:18:12;;;;;;;;;;;;;;;;;;6092326;23;20002;-65
2021/03/25 10:20:47;;;;;;;9.45;5.25;;;;;;;;;;6091718;23;19913;-64
2021/03/25 10:23:15;;;;;;;12.75;5.35;;;;;;;;;;6066319;23;20006;-65
2021/03/25 10:25:40;;;;;;;7.57;4.95;;;;;;;;;;6071835;23;19998;-64
2021/03/25 10:28:10;;;;;;;9.52;5.10;;;;;;;;;;6067257;23;20033;-64
2021/03/25 10:30:36;;;;;;;7.80;5.28;;;;;;;;;;6067335;23;20149;-66
2021/03/25 10:33:03;;;;;;;7.85;5.00;;;;;;;;;;6093371;23;20046;-64
2021/03/25 10:35:32;;;;;;;9.07;4.35;;;;;;;;;;6068192;23;20030;-64
2021/03/25 10:37:58;;;;;;;10.93;5.50;;;;;;;;;;6068740;23;20065;-66
2021/03/25 10:40:24;;;;;;;7.93;5.82;;;;;;;;;;6094421;23;20705;-65
2021/03/25 10:42:54;;;;;;;10.88;5.00;;;;;;;;;;6093593;23;20081;-66
2021/03/25 10:45:20;;;;;;;8.98;4.85;;;;;;;;;;6094771;23;20073;-66
2021/03/25 10:47:51;;;;;;;9.90;6.13;;;;;;;;;;6074969;23;19994;-64
2021/03/25 10:50:18;;;;;;;6.40;4.72;;;;;;;;;;6094492;23;19998;-66
2021/03/25 10:52:44;;;;;;;6.43;4.80;;;;;;;;;;6068789;23;20107;-66
2021/03/25 10:55:11;;;;;;;10.15;5.13;;;;;;;;;;6094001;23;20435;-65
2021/03/25 10:57:36;;;;;;;8.65;4.38;;;;;;;;;;6094533;23;20012;-65
2021/03/25 11:00:11;;;;;;;6.57;4.78;;;;;;;;;;6044888;23;20042;-66
2021/03/25 11:02:39;;;;;;;11.48;5.10;;;;;;;;;;6093874;23;20002;-66
2021/03/25 11:05:06;;;;;;;9.60;5.63;;;;;;;;;;6069794;23;20014;-65
2021/03/25 11:07:37;;;;;;;8.48;5.40;;;;;;;;;;6068671;23;20023;-67
2021/03/25 11:10:04;;;;;;;7.13;4.93;;;;;;;;;;6068758;23;20389;-66
2021/03/25 11:12:30;;;;;;;7.38;5.25;;;;;;;;;;6044493;23;20003;-66
2021/03/25 11:14:57;;;;;;;7.90;5.38;;;;;;;;;;6093892;23;20014;-67
2021/03/25 11:17:26;;;;;;;9.70;5.60;;;;;;;;;;6068557;23;20003;-65
2021/03/25 11:19:54;;;;;;;8.52;5.45;;;;;;;;;;6068392;23;20476;-66
2021/03/25 11:22:20;;;;;;;8.00;5.30;;;;;;;;;;6068235;23;20057;-64
2021/03/25 11:24:46;;;;;;;8.13;5.63;;;;;;;;;;6067095;23;20089;-65
2021/03/25 11:27:14;;;;;;;8.48;5.18;;;;;;;;;;6044253;23;20014;-64
2021/03/25 11:29:41;;;;;;;7.97;5.45;;;;;;;;;;6093026;23;20439;-65
2021/03/25 11:32:16;;;;;;;8.57;5.25;;;;;;;;;;6067370;23;20360;-65
2021/03/25 11:34:42;;;;;;;8.30;5.63;;;;;;;;;;6092073;23;20109;-65
2021/03/25 11:37:17;;;;;;;9.25;5.35;;;;;;;;;;6067714;23;20022;-65
2021/03/25 11:39:52;;;;;;;11.07;6.00;;;;;;;;;;6068364;23;20038;-65
2021/03/25 11:42:20;;;;;;;10.35;5.32;;;;;;;;;;6092562;23;20460;-65
2021/03/25 11:44:48;;;;;;;8.07;5.15;;;;;;;;;;6067082;23;19998;-65
2021/03/25 11:47:23;;;;;;;7.13;4.85;;;;;;;;;;6093332;23;20030;-66
2021/03/25 11:49:48;;;;;;;8.82;5.25;;;;;;;;;;6089085;23;20002;-65
2021/03/25 11:52:14;;;;;;;8.02;5.55;;;;;;;;;;6068226;23;20440;-63
2021/03/25 11:54:42;;;;;;;6.40;5.13;;;;;;;;;;6068846;23;20336;-64
2021/03/25 11:57:21;;;;;;;9.27;5.70;;;;;;;;;;6094474;23;20006;-63
2021/03/25 11:59:48;;;;;;;8.55;5.63;;;;;;;;;;6094710;23;20102;-65
2021/03/25 12:02:17;;;;;;;9.80;6.18;;;;;;;;;;6094890;23;20317;-64
2021/03/25 12:04:42;;;;;;;6.88;5.07;;;;;;;;;;6094169;23;20010;-64
2021/03/25 12:07:09;;;;;;;8.18;5.55;;;;;;;;;;6070207;23;19994;-64
2021/03/25 12:09:35;;;;;;;8.55;5.50;;;;;;;;;;6095667;23;20003;-66
2021/03/25 12:12:01;;;;;;;12.45;6.05;;;;;;;;;;6045094;23;20444;-64
2021/03/25 12:14:27;;;;;;;9.68;5.70;;;;;;;;;;6068580;23;20457;-66
2021/03/25 12:16:54;;;;;;;8.82;5.55;;;;;;;;;;6069475;23;20054;-65
2021/03/25 12:19:19;;;;;;;10.43;6.13;;;;;;;;;;6095594;23;20050;-65
2021/03/25 12:21:45;;;;;;;8.80;6.18;;;;;;;;;;6095703;23;20007;-66
2021/03/25 12:24:12;;;;;;;10.00;5.75;;;;;;;;;;6094225;23;19998;-65
2021/03/25 12:26:37;;;;;;;8.93;6.22;;;;;;;;;;6093893;23;19998;-65
2021/03/25 12:29:03;;;;;;;10.30;6.32;;;;;;;;;;6069258;23;20025;-65
2021/03/25 12:31:29;;;;;;;10.23;6.20;;;;;;;;;;6045506;23;20010;-65
2021/03/25 12:33:55;;;;;;;8.73;5.80;;;;;;;;;;6068306;23;20540;-65
2021/03/25 12:36:20;;;;;;;9.27;6.28;;;;;;;;;;6094122;23;20054;-64
2021/03/25 12:38:46;;;;;;;10.98;6.05;;;;;;;;;;6094869;23;20110;-65
2021/03/25 12:41:21;;;;;;;10.35;6.43;;;;;;;;;;6046224;23;20026;-65
2021/03/25 12:43:46;;;;;;;13.07;6.47;;;;;;;;;;6094203;23;20073;-66
2021/03/25 12:46:12;;;;;;;10.63;7.07;;;;;;;;;;6069180;23;20041;-64
2021/03/25 12:48:37;;;;;;;13.00;7.15;;;;;;;;;;6070454;23;20420;-64
2021/03/25 12:51:04;;;;;;;9.10;6.18;;;;;;;;;;6094636;23;20002;-64
2021/03/25 12:53:30;;;;;;;11.45;5.90;;;;;;;;;;6068647;23;20002;-64
2021/03/25 12:55:56;;;;;;;8.45;5.97;;;;;;;;;;6069913;23;20409;-66
2021/03/25 12:58:24;;;;;;;9.35;5.75;;;;;;;;;;6069056;23;20002;-64
2021/03/25 13:00:50;;;;;;;12.15;6.45;;;;;;;;;;6068586;23;20010;-65
2021/03/25 13:03:16;;;;;;;10.02;6.28;;;;;;;;;;6094372;23;20003;-65
2021/03/25 13:05:41;;;;;;;11.82;6.28;;;;;;;;;;6069068;23;20064;-63
2021/03/25 13:08:07;;;;;;;10.60;5.93;;;;;;;;;;6067789;23;20006;-64
2021/03/25 13:10:34;;;;;;;10.30;5.75;;;;;;;;;;6068048;23;20006;-63
2021/03/25 13:12:59;;;;;;;10.05;5.22;;;;;;;;;;6044330;23;19999;-63
2021/03/25 13:15:25;;;;;;;9.85;5.82;;;;;;;;;;6069139;23;20018;-63
2021/03/25 13:17:51;;;;;;;8.98;5.47;;;;;;;;;;6094561;23;20030;-63
2021/03/25 13:20:17;;;;;;;10.50;5.40;;;;;;;;;;6068688;23;20046;-63
2021/03/25 13:22:43;;;;;;;8.77;5.32;;;;;;;;;;6068721;23;20014;-63
2021/03/25 13:25:08;;;;;;;8.82;5.13;;;;;;;;;;6045286;23;20003;-64
2021/03/25 13:27:34;;;;;;;10.82;5.45;;;;;;;;;;6045718;23;20006;-64
2021/03/25 13:29:59;;;;;;;9.00;5.18;;;;;;;;;;6095006;23;20006;-63
2021/03/25 13:32:25;;;;;;;11.93;5.82;;;;;;;;;;6068730;23;20008;-66
2021/03/25 13:34:51;;;;;;;12.48;5.30;;;;;;;;;;6068553;23;19998;-66
2021/03/25 13:37:16;;;;;;;8.32;5.03;;;;;;;;;;6044081;23;20005;-65
2021/03/25 13:39:41;;;;;;;8.18;5.18;;;;;;;;;;6094731;23;20005;-65
2021/03/25 13:42:07;;;;;;;11.80;5.75;;;;;;;;;;6093976;23;20005;-65
2021/03/25 13:44:33;;;;;;;9.60;5.57;;;;;;;;;;6067649;23;20002;-66
2021/03/25 13:46:58;;;;;;;8.65;5.65;;;;;;;;;;6069313;23;20131;-68
2021/03/25 13:49:24;;;;;;;12.98;5.38;;;;;;;;;;6069647;23;20097;-68
2021/03/25 13:51:49;;;;;;;10.13;5.53;;;;;;;;;;6068413;23;19998;-67
2021/03/25 13:54:14;;;;;;;13.55;6.63;;;;;;;;;;6045300;23;20335;-66
2021/03/25 13:56:40;;;;;;;10.70;5.95;;;;;;;;;;6094000;23;20018;-67
2021/03/25 13:59:05;;;;;;;8.50;5.82;;;;;;;;;;6069160;23;20475;-65
2021/03/25 14:01:30;;;;;;;9.10;5.18;;;;;;;;;;6095012;23;20008;-67
2021/03/25 14:03:56;;;;;;;12.50;5.57;;;;;;;;;;6068031;23;20026;-66
2021/03/25 14:06:21;;;;;;;16.77;5.97;;;;;;;;;;6068344;23;20788;-65
2021/03/25 14:08:47;;;;;;;8.85;4.97;;;;;;;;;;6068508;23;20436;-66
2021/03/25 14:11:12;;;;;;;10.18;6.22;;;;;;;;;;6069010;23;20113;-66
2021/03/25 14:13:38;;;;;;;12.98;5.07;;;;;;;;;;6093321;23;20026;-67
2021/03/25 14:16:04;;;;;;;14.52;6.50;;;;;;;;;;6044989;23;20002;-68
2021/03/25 14:18:30;;;;;;;15.18;5.25;;;;;;;;;;6068994;23;20006;-68
2021/03/25 14:20:57;;;;;;;12.50;5.32;;;;;;;;;;6094818;23;20026;-65
2021/03/25 14:23:23;;;;;;;17.98;5.82;;;;;;;;;;6069405;23;20109;-65
2021/03/25 14:25:49;;;;;;;15.95;5.43;;;;;;;;;;6068511;23;19998;-67
2021/03/25 14:28:16;;;;;;;20.83;5.35;;;;;;;;;;6094546;23;20106;-67
2021/03/25 14:30:42;;;;;;;11.35;5.97;;;;;;;;;;6094173;23;20400;-69
2021/03/25 14:33:09;;;;;;;12.82;5.55;;;;;;;;;;6067928;23;20089;-64
2021/03/25 14:35:37;;;;;;;12.30;5.43;;;;;;;;;;6044092;23;20062;-64
2021/03/25 14:38:03;;;;;;;8.15;5.57;;;;;;;;;;6092614;23;20007;-65
2021/03/25 14:40:28;;;;;;;42.50;7.30;;;;;;;;;;6068747;23;19995;-65
2021/03/25 14:42:54;;;;;;;14.15;4.80;;;;;;;;;;6068256;23;20006;-65
2021/03/25 14:45:21;;;;;;;20.98;5.28;;;;;;;;;;6068574;23;20037;-65
2021/03/25 14:47:46;;;;;;;9.02;5.47;;;;;;;;;;6094619;23;19995;-67
2021/03/25 14:50:12;;;;;;;11.27;5.88;;;;;;;;;;6094111;23;20025;-64
2021/03/25 14:52:38;;;;;;;9.25;5.32;;;;;;;;;;6092409;23;20020;-67
2021/03/25 14:55:04;;;;;;;13.50;6.18;;;;;;;;;;6068650;23;20006;-67
2021/03/25 14:57:29;;;;;;;10.10;5.88;;;;;;;;;;6069348;23;19999;-66
2021/03/25 14:59:55;;;;;;;9.93;5.82;;;;;;;;;;6093970;23;20126;-66
2021/03/25 15:02:20;;;;;;;8.30;5.72;;;;;;;;;;6090815;23;20014;-62
2021/03/25 15:04:46;;;;;;;8.60;5.07;;;;;;;;;;6092571;23;20009;-66
2021/03/25 15:07:12;;;;;;;8.63;5.10;;;;;;;;;;6093690;23;20010;-64
2021/03/25 15:09:37;;;;;;;10.57;5.47;;;;;;;;;;6094369;23;20336;-64
2021/03/25 15:12:04;;;;;;;11.77;5.32;;;;;;;;;;6068499;23;20070;-64
2021/03/25 15:14:30;;;;;;;12.98;5.93;;;;;;;;;;6093035;23;20070;-65
2021/03/25 15:16:56;;;;;;;9.35;5.40;;;;;;;;;;6094653;23;20010;-68
2021/03/25 15:19:22;;;;;;;11.38;5.40;;;;;;;;;;6094659;23;20069;-66
2021/03/25 15:21:48;;;;;;;13.88;5.82;;;;;;;;;;6094231;23;20006;-66
2021/03/25 15:24:14;;;;;;;10.68;5.75;;;;;;;;;;6069235;23;20046;-67
2021/03/25 15:26:39;;;;;;;10.77;5.57;;;;;;;;;;6096490;23;20440;-65
2021/03/25 15:29:09;;;;;;;13.57;5.88;;;;;;;;;;6096887;23;20050;-64
2021/03/25 15:31:36;;;;;;;8.25;5.43;;;;;;;;;;6071505;23;20003;-65
2021/03/25 15:34:02;;;;;;;8.60;5.65;;;;;;;;;;6070706;23;20515;-66
2021/03/25 15:36:29;;;;;;;9.98;5.40;;;;;;;;;;6070501;23;20006;-64
2021/03/25 15:38:55;;;;;;;10.32;6.38;;;;;;;;;;6072004;23;20050;-65
2021/03/25 15:41:21;;;;;;;9.98;6.13;;;;;;;;;;6098124;23;19998;-65
2021/03/25 15:43:48;;;;;;;9.23;5.95;;;;;;;;;;6072786;23;20010;-65
2021/03/25 15:46:14;;;;;;;13.88;7.88;;;;;;;;;;6098347;23;20003;-65
2021/03/25 15:48:40;;;;;;;14.07;6.75;;;;;;;;;;6097856;23;20456;-65
2021/03/25 15:51:06;;;;;;;13.07;7.28;;;;;;;;;;6072487;23;20006;-65
2021/03/25 15:53:33;;;;;;;20.33;7.00;;;;;;;;;;6097195;23;20005;-64
2021/03/25 15:56:00;;;;;;;16.08;6.38;;;;;;;;;;6072739;23;20325;-65
2021/03/25 15:58:25;;;;;;;23.55;8.98;;;;;;;;;;6090236;23;19998;-64
2021/03/25 16:00:51;;;;;;;22.38;10.30;;;;;;;;;;6096583;23;20026;-64
2021/03/25 16:03:17;;;;;;;20.75;6.32;;;;;;;;;;6096546;23;20447;-65
2021/03/25 16:05:43;;;;;;;411.67;25.90;;;;;;;;;;6071257;23;20007;-65
2021/03/25 16:08:09;;;;;;;23.08;7.18;;;;;;;;;;6071117;23;20006;-64
2021/03/25 16:10:35;;;;;;;14.98;6.00;;;;;;;;;;6070460;23;20332;-65
2021/03/25 16:13:01;;;;;;;11.02;6.22;;;;;;;;;;6094624;23;20011;-65
2021/03/25 16:15:29;;;;;;;14.38;6.80;;;;;;;;;;6096734;23;20022;-66
2021/03/25 16:17:55;;;;;;;13.57;7.10;;;;;;;;;;6070711;23;20050;-65
2021/03/25 16:20:22;;;;;;;16.05;6.90;;;;;;;;;;6069853;23;20424;-65
2021/03/25 16:22:50;;;;;;;18.35;6.20;;;;;;;;;;6070093;23;20305;-62
2021/03/25 16:25:16;;;;;;;22.65;7.40;;;;;;;;;;6095362;23;20365;-62
2021/03/25 16:27:41;;;;;;;27.00;7.30;;;;;;;;;;6071021;23;20066;-62
